Time;durP1;ratioP1;P1;durP2;ratioP2;P2;SDS_P1;SDS_P2;PMS_P1;PMS_P2;Temp;Humidity;BMP_temperature;BMP_pressure;BME280_temperature;BME280_humidity;BME280_pressure;Samples;Min_cycle;Max_cycle;Signal;HPM_P1;HPM_P2
2022/10/15 00:01:41;;;;;;;26.60;23.75;;;14.90;90.30;;;;;;5026249;28;20064;-74
2022/10/15 00:04:07;;;;;;;24.08;21.48;;;14.80;90.30;;;;;;5021938;28;20077;-75
2022/10/15 00:06:33;;;;;;;28.80;23.33;;;14.90;90.30;;;;;;5008682;28;20032;-75
2022/10/15 00:08:58;;;;;;;24.80;21.45;;;14.90;90.20;;;;;;5017273;28;20034;-74
2022/10/15 00:11:26;;;;;;;23.98;21.05;;;14.90;90.10;;;;;;5023457;28;21140;-74
2022/10/15 00:13:53;;;;;;;24.23;20.42;;;14.90;90.10;;;;;;5025617;28;20086;-74
2022/10/15 00:16:22;;;;;;;24.80;21.50;;;14.90;90.20;;;;;;5024693;28;20029;-74
2022/10/15 00:18:48;;;;;;;24.05;20.90;;;14.90;90.10;;;;;;5006429;28;20049;-73
2022/10/15 00:21:16;;;;;;;22.42;19.88;;;14.90;90.10;;;;;;5004656;28;20133;-75
2022/10/15 00:23:42;;;;;;;21.92;19.60;;;14.90;90.20;;;;;;5021082;28;20543;-73
2022/10/15 00:26:11;;;;;;;22.65;19.27;;;14.90;90.10;;;;;;5021027;28;20025;-73
2022/10/15 00:28:37;;;;;;;22.95;19.40;;;14.90;90.10;;;;;;5013623;28;20191;-74
2022/10/15 00:31:09;;;;;;;23.00;19.15;;;14.80;90.10;;;;;;5024556;28;20029;-74
2022/10/15 00:33:35;;;;;;;23.75;18.90;;;14.90;90.10;;;;;;5023415;28;20041;-74
2022/10/15 00:36:20;;;;;;;21.20;18.75;;;14.80;90.10;;;;;;5007437;28;20034;-75
2022/10/15 00:38:47;;;;;;;20.38;17.05;;;14.80;90.10;;;;;;5028973;28;20164;-75
2022/10/15 00:41:17;;;;;;;18.48;15.18;;;14.80;90.10;;;;;;5020088;28;20479;-75
2022/10/15 00:43:44;;;;;;;18.80;16.45;;;14.80;90.10;;;;;;5004912;28;20124;-75
2022/10/15 00:46:19;;;;;;;21.15;17.40;;;14.70;90.20;;;;;;5019780;28;20590;-76
2022/10/15 00:48:48;;;;;;;22.20;19.02;;;14.80;90.30;;;;;;5019734;28;20128;-75
2022/10/15 00:51:17;;;;;;;22.50;19.40;;;14.70;90.30;;;;;;5022829;28;20038;-75
2022/10/15 00:53:43;;;;;;;20.65;17.33;;;14.70;90.40;;;;;;5021862;28;20407;-75
2022/10/15 00:56:10;;;;;;;20.70;17.55;;;14.70;90.50;;;;;;5021392;28;20061;-74
2022/10/15 00:58:35;;;;;;;21.50;18.00;;;14.70;90.50;;;;;;5024252;28;20037;-75
2022/10/15 01:01:01;;;;;;;21.10;18.70;;;14.70;90.60;;;;;;5022456;28;20085;-75
2022/10/15 01:03:27;;;;;;;22.35;18.63;;;14.70;90.50;;;;;;5022737;28;20041;-75
2022/10/15 01:05:54;;;;;;;21.63;18.40;;;14.60;90.60;;;;;;4998626;28;20029;-73
2022/10/15 01:08:19;;;;;;;22.33;19.30;;;14.60;90.60;;;;;;5017740;28;20056;-73
2022/10/15 01:11:00;;;;;;;21.98;19.58;;;14.60;90.70;;;;;;5006506;28;20061;-74
2022/10/15 01:13:59;;;;;;;23.83;19.58;;;14.60;90.70;;;;;;5023354;28;20042;-74
2022/10/15 01:16:37;;;;;;;23.55;21.05;;;14.60;90.80;;;;;;5023041;28;20042;-73
2022/10/15 01:19:09;;;;;;;26.77;21.65;;;14.60;90.90;;;;;;5004680;28;20037;-74
2022/10/15 01:21:43;;;;;;;24.67;20.15;;;14.60;91.00;;;;;;5019778;28;20064;-75
2022/10/15 01:24:20;;;;;;;22.55;19.65;;;14.60;90.90;;;;;;5022548;28;20088;-74
2022/10/15 01:27:26;;;;;;;23.38;20.73;;;14.70;91.00;;;;;;5024075;28;20083;-75
2022/10/15 01:29:58;;;;;;;;;;;14.70;90.90;;;;;;5012917;28;20025;-74
2022/10/15 01:32:29;;;;;;;26.92;21.00;;;14.70;90.90;;;;;;5022342;28;20206;-75
2022/10/15 01:35:12;;;;;;;26.40;22.48;;;14.70;90.90;;;;;;5019850;28;20044;-75
2022/10/15 01:37:41;;;;;;;24.20;20.60;;;14.60;90.90;;;;;;5022482;28;20059;-74
2022/10/15 01:40:25;;;;;;;29.00;22.25;;;14.70;91.00;;;;;;5015686;28;20053;-74
2022/10/15 01:42:59;;;;;;;23.45;20.70;;;14.60;91.00;;;;;;5022932;28;20033;-73
2022/10/15 01:45:32;;;;;;;26.17;21.45;;;14.70;91.10;;;;;;5022112;28;20026;-74
2022/10/15 01:48:05;;;;;;;27.25;22.58;;;14.70;91.00;;;;;;5022347;28;20495;-74
2022/10/15 01:50:34;;;;;;;26.55;21.60;;;14.70;91.10;;;;;;5010754;28;20462;-74
2022/10/15 01:53:03;;;;;;;25.90;22.27;;;14.70;91.00;;;;;;5022690;28;20022;-74
2022/10/15 01:55:30;;;;;;;26.17;21.98;;;14.70;91.00;;;;;;5016242;28;20034;-75
2022/10/15 01:57:57;;;;;;;25.20;21.15;;;14.70;91.00;;;;;;5021738;28;20039;-74
2022/10/15 02:00:23;;;;;;;25.70;21.92;;;14.70;91.10;;;;;;5002441;28;20377;-74
2022/10/15 02:02:49;;;;;;;24.25;20.13;;;14.70;91.00;;;;;;5022082;28;20037;-74
2022/10/15 02:05:20;;;;;;;25.55;21.27;;;14.70;91.10;;;;;;5023519;28;20037;-73
2022/10/15 02:08:04;;;;;;;24.85;21.65;;;14.70;91.00;;;;;;5000543;28;20034;-74
2022/10/15 02:10:36;;;;;;;26.37;20.33;;;14.70;91.00;;;;;;5020234;28;20025;-74
2022/10/15 02:13:35;;;;;;;25.70;20.65;;;14.70;91.00;;;;;;5022074;28;20026;-75
2022/10/15 02:16:00;;;;;;;23.65;21.05;;;14.60;91.00;;;;;;4965595;28;20050;-74
2022/10/15 02:18:55;;;;;;;25.73;22.08;;;14.60;91.00;;;;;;5021222;28;20146;-73
2022/10/15 02:21:31;;;;;;;24.98;21.38;;;14.60;90.90;;;;;;5015340;28;20418;-73
2022/10/15 02:24:08;;;;;;;25.48;22.00;;;14.60;90.90;;;;;;5022365;28;20041;-73
2022/10/15 02:26:35;;;;;;;25.20;21.58;;;14.60;90.90;;;;;;5017821;28;20036;-74
2022/10/15 02:29:03;;;;;;;25.00;20.25;;;14.60;90.90;;;;;;5019121;28;20473;-75
2022/10/15 02:31:32;;;;;;;24.65;21.60;;;14.60;90.90;;;;;;5021190;28;20377;-74
2022/10/15 02:34:03;;;;;;;25.08;20.40;;;14.60;91.00;;;;;;5022766;28;20022;-74
2022/10/15 02:36:29;;;;;;;25.67;20.15;;;14.60;91.00;;;;;;5015754;28;20148;-74
2022/10/15 02:38:56;;;;;;;22.67;20.20;;;14.50;90.90;;;;;;5022586;28;20049;-74
2022/10/15 02:41:22;;;;;;;23.38;20.77;;;14.50;90.90;;;;;;5026675;28;20094;-74
2022/10/15 02:43:48;;;;;;;24.00;20.73;;;14.50;90.90;;;;;;5026940;28;20053;-74
2022/10/15 02:46:16;;;;;;;24.77;21.25;;;14.40;90.80;;;;;;5027066;28;20037;-74
2022/10/15 02:48:42;;;;;;;21.30;19.00;;;14.40;90.80;;;;;;5026400;28;20065;-73
2022/10/15 02:51:07;;;;;;;23.73;19.73;;;14.40;90.90;;;;;;5024118;28;20464;-73
2022/10/15 02:53:33;;;;;;;23.63;19.60;;;14.40;90.90;;;;;;5021056;28;20038;-73
2022/10/15 02:55:59;;;;;;;22.83;19.15;;;14.40;91.00;;;;;;5027197;28;20033;-73
2022/10/15 02:58:24;;;;;;;23.38;19.02;;;14.40;91.10;;;;;;5026832;28;20030;-74
2022/10/15 03:00:50;;;;;;;21.90;18.40;;;14.30;91.00;;;;;;5026301;28;20164;-73
2022/10/15 03:03:16;;;;;;;22.23;18.50;;;14.40;91.10;;;;;;5026071;28;20063;-74
2022/10/15 03:05:42;;;;;;;23.20;18.42;;;14.30;91.00;;;;;;5018312;28;20445;-74
2022/10/15 03:08:08;;;;;;;22.13;18.67;;;14.30;91.00;;;;;;5025132;28;20538;-74
2022/10/15 03:10:34;;;;;;;23.50;20.00;;;14.30;91.10;;;;;;5008109;28;20055;-74
2022/10/15 03:13:04;;;;;;;22.00;18.20;;;14.30;91.00;;;;;;5033621;28;20034;-74
2022/10/15 03:15:30;;;;;;;23.02;18.02;;;14.30;91.00;;;;;;5027034;28;20083;-73
2022/10/15 03:17:55;;;;;;;22.10;19.17;;;14.40;91.10;;;;;;5025166;28;20025;-75
2022/10/15 03:20:21;;;;;;;20.63;17.15;;;14.30;90.90;;;;;;5019287;28;20095;-73
2022/10/15 03:22:47;;;;;;;21.48;17.38;;;14.30;91.00;;;;;;5008700;28;20124;-74
2022/10/15 03:25:12;;;;;;;23.10;18.70;;;14.30;91.00;;;;;;5019599;28;20026;-74
2022/10/15 03:27:38;;;;;;;21.42;18.10;;;14.30;91.00;;;;;;5012512;28;20531;-74
2022/10/15 03:30:04;;;;;;;23.52;18.80;;;14.30;91.00;;;;;;5024081;28;20046;-74
2022/10/15 03:32:30;;;;;;;21.40;17.92;;;14.30;91.00;;;;;;5016534;28;20026;-73
2022/10/15 03:34:55;;;;;;;20.90;17.65;;;14.30;91.00;;;;;;5024565;28;20029;-73
2022/10/15 03:37:21;;;;;;;22.60;18.02;;;14.30;91.00;;;;;;5024292;28;20045;-73
2022/10/15 03:39:47;;;;;;;21.85;17.80;;;14.30;90.90;;;;;;5024250;28;20026;-74
2022/10/15 03:42:12;;;;;;;20.40;16.52;;;14.20;90.90;;;;;;5024825;28;20140;-73
2022/10/15 03:44:38;;;;;;;21.83;16.38;;;14.30;91.00;;;;;;5025008;28;20056;-73
2022/10/15 03:47:04;;;;;;;22.75;18.08;;;14.30;91.00;;;;;;5024210;28;20485;-73
2022/10/15 03:49:29;;;;;;;21.08;16.08;;;14.30;90.80;;;;;;5022517;28;20112;-74
2022/10/15 03:51:55;;;;;;;20.60;17.30;;;14.30;90.80;;;;;;5023919;28;20040;-74
2022/10/15 03:54:20;;;;;;;21.65;16.13;;;14.30;90.80;;;;;;5030348;28;20045;-74
2022/10/15 03:56:46;;;;;;;21.67;16.58;;;14.30;90.90;;;;;;4997969;28;20041;-74
2022/10/15 03:59:12;;;;;;;20.80;16.90;;;14.30;90.80;;;;;;5021330;28;20034;-75
2022/10/15 04:01:37;;;;;;;20.67;16.20;;;14.30;90.80;;;;;;5006790;28;20143;-75
2022/10/15 04:04:03;;;;;;;20.15;15.85;;;14.30;90.80;;;;;;5024565;28;20473;-73
2022/10/15 04:06:29;;;;;;;20.65;15.48;;;14.30;90.70;;;;;;5017989;28;20136;-73
2022/10/15 04:08:55;;;;;;;20.48;15.50;;;14.30;90.70;;;;;;5024385;28;20034;-74
2022/10/15 04:11:20;;;;;;;21.02;15.90;;;14.20;90.70;;;;;;5016460;28;21931;-74
2022/10/15 04:13:49;;;;;;;20.20;15.77;;;14.20;90.70;;;;;;5023028;28;20144;-74
2022/10/15 04:16:15;;;;;;;19.50;16.27;;;14.20;90.60;;;;;;5001228;28;503834;-74
2022/10/15 04:18:40;;;;;;;20.58;16.35;;;14.20;90.60;;;;;;5019454;28;20052;-74
2022/10/15 04:21:06;;;;;;;18.70;14.73;;;14.20;90.70;;;;;;5019823;28;20026;-75
2022/10/15 04:23:32;;;;;;;18.40;15.27;;;14.20;90.70;;;;;;5004454;28;20056;-73
2022/10/15 04:25:59;;;;;;;17.08;14.45;;;14.20;90.70;;;;;;5025320;28;20121;-74
2022/10/15 04:28:24;;;;;;;17.98;14.75;;;14.20;90.70;;;;;;5022761;28;20051;-74
2022/10/15 04:30:50;;;;;;;18.60;14.20;;;14.20;90.70;;;;;;5021468;28;20499;-74
2022/10/15 04:33:16;;;;;;;18.90;14.48;;;14.20;90.70;;;;;;5024528;28;20033;-74
2022/10/15 04:35:41;;;;;;;18.80;15.10;;;14.20;90.70;;;;;;5025893;28;20080;-74
2022/10/15 04:38:07;;;;;;;19.63;14.55;;;14.20;90.70;;;;;;5024674;28;20041;-73
2022/10/15 04:40:33;;;;;;;16.98;13.30;;;14.30;90.80;;;;;;5018019;28;20032;-74
2022/10/15 04:42:58;;;;;;;18.00;14.10;;;14.20;90.70;;;;;;5024310;28;20042;-74
2022/10/15 04:45:24;;;;;;;18.05;13.27;;;14.30;90.70;;;;;;5004797;28;20041;-74
2022/10/15 04:47:49;;;;;;;19.05;13.60;;;14.30;90.60;;;;;;5022693;28;20026;-74
2022/10/15 04:50:15;;;;;;;19.58;14.60;;;14.30;90.60;;;;;;5020496;28;20065;-74
2022/10/15 04:52:41;;;;;;;21.00;15.52;;;14.30;90.50;;;;;;5023519;28;20021;-74
2022/10/15 04:55:06;;;;;;;21.70;14.40;;;14.30;90.50;;;;;;5002523;28;20038;-74
2022/10/15 04:57:32;;;;;;;21.38;16.63;;;14.30;90.60;;;;;;5007360;28;20025;-74
2022/10/15 04:59:58;;;;;;;23.52;16.63;;;14.30;90.60;;;;;;5021251;28;20485;-74
2022/10/15 05:02:23;;;;;;;22.50;16.85;;;14.20;90.50;;;;;;5023766;28;20121;-73
2022/10/15 05:04:49;;;;;;;23.52;17.05;;;14.20;90.50;;;;;;5022836;28;20464;-74
2022/10/15 05:07:15;;;;;;;25.83;18.50;;;14.20;90.60;;;;;;5020926;28;20083;-74
2022/10/15 05:09:41;;;;;;;24.73;18.10;;;14.20;90.60;;;;;;5024662;28;20021;-74
2022/10/15 05:12:06;;;;;;;26.02;18.25;;;14.20;90.70;;;;;;5024925;28;20114;-74
2022/10/15 05:14:34;;;;;;;29.83;19.75;;;14.30;90.70;;;;;;4997503;28;20053;-73
2022/10/15 05:17:00;;;;;;;27.05;18.77;;;14.20;90.70;;;;;;5023548;28;20040;-73
2022/10/15 05:19:25;;;;;;;27.63;18.90;;;14.30;90.80;;;;;;5018133;28;20033;-73
2022/10/15 05:21:51;;;;;;;28.88;20.00;;;14.30;90.80;;;;;;5018731;28;20472;-74
2022/10/15 05:24:16;;;;;;;30.80;19.90;;;14.30;90.80;;;;;;5023857;28;20037;-75
2022/10/15 05:26:42;;;;;;;25.23;18.98;;;14.30;90.80;;;;;;5023196;28;20150;-74
2022/10/15 05:29:08;;;;;;;28.05;20.58;;;14.30;90.80;;;;;;5023784;28;20033;-74
2022/10/15 05:31:33;;;;;;;27.17;20.92;;;14.30;90.80;;;;;;5021895;28;20029;-74
2022/10/15 05:34:06;;;;;;;25.50;19.27;;;14.30;90.70;;;;;;5024468;28;20389;-74
2022/10/15 05:36:32;;;;;;;27.80;20.88;;;14.30;90.70;;;;;;5023614;28;20405;-74
2022/10/15 05:38:59;;;;;;;28.77;20.75;;;14.30;90.80;;;;;;5018401;28;20030;-74
2022/10/15 05:41:26;;;;;;;28.67;20.77;;;14.40;90.70;;;;;;5021195;28;20128;-74
2022/10/15 05:43:54;;;;;;;27.55;20.27;;;14.30;90.70;;;;;;5026930;28;20063;-74
2022/10/15 05:46:20;;;;;;;28.77;20.25;;;14.40;90.70;;;;;;5033151;28;20036;-74
2022/10/15 05:48:50;;;;;;;27.48;19.83;;;14.40;90.70;;;;;;5037027;28;20112;-74
2022/10/15 05:51:16;;;;;;;29.10;21.20;;;14.40;90.80;;;;;;5021631;28;20040;-74
2022/10/15 05:53:42;;;;;;;26.48;20.55;;;14.40;90.70;;;;;;5013126;28;20099;-75
2022/10/15 05:56:09;;;;;;;28.08;20.60;;;14.40;90.80;;;;;;5018938;28;20105;-75
2022/10/15 05:58:35;;;;;;;27.58;21.38;;;14.40;90.80;;;;;;5023500;28;20474;-75
2022/10/15 06:01:03;;;;;;;28.45;21.30;;;14.50;90.70;;;;;;5022634;28;20033;-75
2022/10/15 06:03:29;;;;;;;27.65;22.10;;;14.40;90.70;;;;;;5017893;28;20057;-74
2022/10/15 06:05:54;;;;;;;30.13;21.08;;;14.40;90.80;;;;;;5023406;28;20457;-74
2022/10/15 06:08:21;;;;;;;28.33;20.60;;;14.50;90.70;;;;;;5022586;28;20142;-73
2022/10/15 06:10:47;;;;;;;28.10;20.70;;;14.50;90.70;;;;;;5023128;28;20040;-74
2022/10/15 06:13:13;;;;;;;27.27;19.80;;;14.50;90.70;;;;;;5022219;28;20033;-74
2022/10/15 06:15:41;;;;;;;31.60;22.63;;;14.60;90.80;;;;;;5021810;28;20564;-74
2022/10/15 06:18:07;;;;;;;33.85;22.17;;;14.50;90.80;;;;;;5003818;28;20033;-74
2022/10/15 06:20:33;;;;;;;29.55;21.73;;;14.60;90.80;;;;;;5021328;28;20029;-74
2022/10/15 06:22:59;;;;;;;32.15;23.05;;;14.60;90.80;;;;;;5002291;28;20034;-75
2022/10/15 06:25:25;;;;;;;32.33;22.50;;;14.60;90.80;;;;;;5014386;28;20449;-75
2022/10/15 06:27:51;;;;;;;34.40;23.35;;;14.60;90.80;;;;;;5016912;28;20021;-76
2022/10/15 06:30:17;;;;;;;34.22;22.95;;;14.60;90.80;;;;;;5014641;28;20086;-75
2022/10/15 06:32:51;;;;;;;33.35;22.77;;;14.60;90.80;;;;;;5001351;28;20034;-76
2022/10/15 06:35:18;;;;;;;34.65;23.33;;;14.60;90.80;;;;;;5017475;28;20057;-76
2022/10/15 06:37:43;;;;;;;33.00;22.83;;;14.60;90.70;;;;;;5022046;28;20026;-76
2022/10/15 06:40:10;;;;;;;29.30;21.15;;;14.70;90.80;;;;;;5017723;28;20509;-77
2022/10/15 06:42:36;;;;;;;32.08;23.27;;;14.70;90.70;;;;;;5014707;28;20131;-74
2022/10/15 06:45:02;;;;;;;31.42;21.60;;;14.70;90.70;;;;;;5015938;28;20493;-75
2022/10/15 06:47:28;;;;;;;31.52;22.17;;;14.80;90.80;;;;;;5018578;28;20033;-74
2022/10/15 06:49:54;;;;;;;30.85;21.65;;;14.80;90.80;;;;;;5019899;28;20369;-75
2022/10/15 06:52:19;;;;;;;31.88;22.70;;;14.80;90.90;;;;;;5002124;28;20249;-74
2022/10/15 06:54:45;;;;;;;29.60;20.80;;;14.80;90.90;;;;;;5018719;28;20437;-74
2022/10/15 06:57:11;;;;;;;31.20;20.80;;;14.90;90.90;;;;;;5019681;28;20075;-74
2022/10/15 06:59:36;;;;;;;28.85;21.05;;;14.90;90.90;;;;;;5000628;28;20037;-74
2022/10/15 07:02:02;;;;;;;28.50;20.38;;;14.90;91.00;;;;;;5012786;28;20436;-75
2022/10/15 07:04:28;;;;;;;27.05;19.50;;;15.00;91.00;;;;;;5017759;28;20026;-74
2022/10/15 07:06:53;;;;;;;28.67;20.25;;;14.90;91.10;;;;;;5018632;28;20037;-75
2022/10/15 07:09:19;;;;;;;29.67;20.55;;;15.00;91.10;;;;;;5016517;28;20038;-73
2022/10/15 07:11:45;;;;;;;28.15;21.17;;;14.90;91.20;;;;;;5019386;28;20036;-74
2022/10/15 07:14:11;;;;;;;27.95;20.02;;;15.00;91.30;;;;;;5018901;28;20061;-74
2022/10/15 07:16:38;;;;;;;29.13;20.13;;;15.00;91.30;;;;;;5011676;28;20674;-75
2022/10/15 07:19:05;;;;;;;29.80;20.08;;;15.00;91.40;;;;;;5019540;28;20033;-75
2022/10/15 07:21:30;;;;;;;26.50;18.25;;;15.00;91.40;;;;;;5017440;28;20089;-74
2022/10/15 07:23:56;;;;;;;26.50;18.30;;;15.00;91.40;;;;;;5018725;28;20416;-74
2022/10/15 07:26:22;;;;;;;26.25;17.88;;;15.00;91.40;;;;;;5019732;28;20047;-73
2022/10/15 07:28:47;;;;;;;29.33;20.40;;;15.10;91.60;;;;;;5021781;28;20652;-73
2022/10/15 07:31:13;;;;;;;27.48;19.02;;;15.10;91.60;;;;;;5023384;28;20036;-74
2022/10/15 07:33:41;;;;;;;24.00;15.63;;;15.10;91.60;;;;;;4998575;28;20076;-74
2022/10/15 07:36:11;;;;;;;24.25;16.88;;;15.10;91.70;;;;;;5022108;28;20049;-74
2022/10/15 07:38:38;;;;;;;23.23;16.30;;;15.10;91.70;;;;;;5004275;28;20049;-73
2022/10/15 07:41:05;;;;;;;24.02;14.98;;;15.10;91.70;;;;;;5005232;28;20031;-74
2022/10/15 07:43:31;;;;;;;20.83;14.50;;;15.10;91.80;;;;;;5022410;28;20631;-74
2022/10/15 07:45:57;;;;;;;21.83;14.65;;;15.10;91.80;;;;;;5023883;28;20148;-74
2022/10/15 07:48:23;;;;;;;21.35;13.85;;;15.20;91.90;;;;;;5018628;28;20033;-74
2022/10/15 07:50:56;;;;;;;20.85;14.20;;;15.10;91.90;;;;;;5017664;28;20125;-74
2022/10/15 07:53:22;;;;;;;18.80;13.65;;;15.20;92.10;;;;;;5018187;28;20302;-75
2022/10/15 07:55:48;;;;;;;19.45;13.90;;;15.20;92.10;;;;;;5022306;28;20567;-74
2022/10/15 07:58:14;;;;;;;20.35;13.32;;;15.30;92.20;;;;;;5020398;28;20444;-74
2022/10/15 08:00:39;;;;;;;19.60;14.20;;;15.30;92.10;;;;;;5023530;28;20040;-74
2022/10/15 08:03:05;;;;;;;17.85;13.15;;;15.40;92.20;;;;;;5019028;28;20485;-74
2022/10/15 08:05:31;;;;;;;17.45;12.50;;;15.40;92.10;;;;;;5024708;28;20481;-75
2022/10/15 08:07:57;;;;;;;17.25;12.65;;;15.40;92.10;;;;;;5025575;28;20156;-74
2022/10/15 08:10:23;;;;;;;18.40;13.38;;;15.50;92.10;;;;;;5019527;28;20221;-74
2022/10/15 08:12:48;;;;;;;18.58;13.93;;;15.50;92.20;;;;;;5018995;28;20034;-75
2022/10/15 08:15:14;;;;;;;19.08;14.20;;;15.60;92.20;;;;;;5022876;28;20049;-74
2022/10/15 08:17:39;;;;;;;17.83;13.52;;;15.60;92.10;;;;;;5005167;28;20026;-74
2022/10/15 08:20:05;;;;;;;17.83;14.43;;;15.60;92.20;;;;;;5007950;28;20390;-75
2022/10/15 08:22:32;;;;;;;19.73;14.65;;;15.70;92.10;;;;;;5027376;28;20041;-74
2022/10/15 08:24:58;;;;;;;18.48;14.95;;;15.70;92.20;;;;;;5026035;28;20555;-74
2022/10/15 08:27:23;;;;;;;17.25;13.52;;;15.80;92.20;;;;;;5023906;28;20037;-74
2022/10/15 08:29:49;;;;;;;16.05;13.63;;;15.90;92.20;;;;;;5025130;28;20493;-75
2022/10/15 08:32:15;;;;;;;17.70;14.18;;;15.90;92.00;;;;;;5023583;28;20473;-74
2022/10/15 08:34:40;;;;;;;18.50;13.98;;;16.00;92.00;;;;;;5023799;28;20034;-74
2022/10/15 08:37:06;;;;;;;20.02;15.07;;;16.00;91.90;;;;;;5023467;28;20029;-74
2022/10/15 08:39:31;;;;;;;16.20;13.93;;;16.00;92.10;;;;;;5006316;28;20037;-75
2022/10/15 08:42:00;;;;;;;15.95;13.10;;;16.00;92.10;;;;;;5022727;28;20454;-74
2022/10/15 08:44:27;;;;;;;16.00;12.57;;;16.10;92.10;;;;;;5022759;28;20789;-74
2022/10/15 08:47:23;;;;;;;13.10;9.95;;;16.10;92.00;;;;;;5006749;28;20073;-75
2022/10/15 08:49:51;;;;;;;12.63;8.95;;;16.20;92.00;;;;;;4994115;28;20040;-74
2022/10/15 08:52:43;;;;;;;10.77;8.40;;;16.20;92.10;;;;;;5018930;28;20045;-74
2022/10/15 08:55:15;;;;;;;10.75;7.78;;;16.20;92.00;;;;;;5020351;28;20029;-74
2022/10/15 08:57:57;;;;;;;9.73;7.05;;;16.20;92.10;;;;;;5019108;28;20375;-75
2022/10/15 09:00:27;;;;;;;9.50;6.47;;;16.30;92.20;;;;;;5013147;28;20030;-74
2022/10/15 09:03:21;;;;;;;7.50;5.70;;;16.40;92.00;;;;;;5024037;28;20142;-74
2022/10/15 09:05:58;;;;;;;8.15;5.13;;;16.50;92.00;;;;;;5015306;28;20099;-75
2022/10/15 09:08:32;;;;;;;7.60;5.03;;;16.50;91.90;;;;;;5020130;28;20064;-74
2022/10/15 09:11:12;;;;;;;7.38;4.93;;;16.60;91.80;;;;;;5016659;28;20365;-75
2022/10/15 09:13:41;;;;;;;6.78;4.50;;;16.60;91.80;;;;;;4987373;28;20500;-75
2022/10/15 09:16:15;;;;;;;9.52;4.95;;;16.70;91.80;;;;;;5021726;28;20442;-76
2022/10/15 09:18:44;;;;;;;6.78;4.30;;;16.70;91.50;;;;;;5021673;28;20040;-75
2022/10/15 09:21:12;;;;;;;6.65;4.10;;;16.80;91.50;;;;;;5012627;28;20041;-74
2022/10/15 09:23:40;;;;;;;7.30;4.93;;;16.80;91.60;;;;;;5012056;28;20049;-74
2022/10/15 09:26:15;;;;;;;7.13;4.40;;;16.90;91.40;;;;;;5012648;28;20022;-74
2022/10/15 09:28:55;;;;;;;6.68;4.63;;;17.00;91.40;;;;;;4997298;28;20064;-74
2022/10/15 09:31:25;;;;;;;7.47;4.43;;;17.10;91.50;;;;;;5016180;28;20120;-75
2022/10/15 09:34:06;;;;;;;5.25;3.95;;;17.20;91.40;;;;;;5011206;28;20836;-74
2022/10/15 09:36:34;;;;;;;6.90;4.35;;;17.30;90.90;;;;;;5015591;28;20840;-76
2022/10/15 09:39:02;;;;;;;6.65;4.35;;;17.40;90.90;;;;;;5017756;28;20106;-77
2022/10/15 09:41:50;;;;;;;6.28;4.03;;;17.60;90.60;;;;;;4994090;28;20064;-74
2022/10/15 09:44:17;;;;;;;5.35;3.80;;;17.60;90.20;;;;;;4988378;28;20756;-74
2022/10/15 09:46:48;;;;;;;7.03;4.30;;;17.70;89.90;;;;;;5002747;28;20398;-73
2022/10/15 09:49:23;;;;;;;5.57;4.03;;;17.70;89.90;;;;;;5021293;28;20074;-72
2022/10/15 09:52:15;;;;;;;8.10;4.22;;;17.70;89.90;;;;;;5023457;28;20106;-72
2022/10/15 09:55:12;;;;;;;7.40;4.30;;;17.80;89.90;;;;;;5021408;28;20028;-73
2022/10/15 09:57:39;;;;;;;5.22;3.80;;;18.00;90.20;;;;;;5011437;28;20136;-73
2022/10/15 10:00:08;;;;;;;4.45;3.22;;;18.20;89.20;;;;;;5019371;28;20029;-75
2022/10/15 10:02:34;;;;;;;3.67;2.50;;;18.30;88.40;;;;;;5012039;28;20044;-75
2022/10/15 10:05:19;;;;;;;4.25;2.65;;;18.30;88.20;;;;;;5023292;28;20029;-75
2022/10/15 10:07:45;;;;;;;6.35;2.20;;;18.50;88.40;;;;;;5020294;28;20101;-75
2022/10/15 10:10:26;;;;;;;4.88;2.53;;;18.80;87.90;;;;;;5024613;28;20121;-73
2022/10/15 10:12:54;;;;;;;5.10;2.28;;;19.10;87.30;;;;;;5019778;28;20033;-74
2022/10/15 10:15:29;;;;;;;3.38;2.00;;;19.10;86.00;;;;;;5018831;28;20061;-74
2022/10/15 10:17:56;;;;;;;3.13;2.05;;;19.30;85.30;;;;;;5022926;28;20193;-74
2022/10/15 10:20:24;;;;;;;3.60;1.70;;;19.40;85.60;;;;;;5014562;28;20042;-74
2022/10/15 10:22:53;;;;;;;4.32;2.15;;;19.40;85.20;;;;;;5022055;28;20046;-74
2022/10/15 10:25:22;;;;;;;3.42;1.90;;;19.40;85.40;;;;;;5024526;28;20041;-74
2022/10/15 10:27:48;;;;;;;3.65;2.35;;;19.30;84.60;;;;;;5017626;28;20045;-73
2022/10/15 10:30:14;;;;;;;4.43;2.90;;;19.30;84.40;;;;;;5022723;28;20036;-74
2022/10/15 10:32:40;;;;;;;5.38;3.03;;;19.00;84.50;;;;;;5019314;28;20038;-74
2022/10/15 10:35:20;;;;;;;4.72;3.03;;;19.00;84.80;;;;;;5003035;28;20090;-74
2022/10/15 10:37:47;;;;;;;6.78;3.63;;;18.90;85.30;;;;;;5013767;28;20783;-74
2022/10/15 10:40:26;;;;;;;6.22;3.67;;;18.90;85.40;;;;;;5016814;28;20113;-73
2022/10/15 10:43:17;;;;;;;4.00;2.78;;;19.10;84.60;;;;;;5014714;28;20346;-74
2022/10/15 10:45:58;;;;;;;2.92;2.03;;;19.30;84.20;;;;;;5013490;28;20045;-73
2022/10/15 10:48:45;;;;;;;4.97;2.80;;;19.60;82.50;;;;;;5005755;28;20034;-75
2022/10/15 10:51:17;;;;;;;4.10;2.25;;;20.10;81.80;;;;;;5008143;28;20025;-75
2022/10/15 10:54:03;;;;;;;4.60;2.20;;;20.20;80.00;;;;;;5006238;28;20121;-75
2022/10/15 10:56:37;;;;;;;4.90;2.38;;;20.20;80.50;;;;;;4993811;28;20532;-74
2022/10/15 10:59:28;;;;;;;3.58;2.08;;;20.10;80.00;;;;;;5017934;28;20502;-75
2022/10/15 11:01:55;;;;;;;4.68;2.20;;;19.60;80.80;;;;;;5012121;28;20037;-74
2022/10/15 11:04:25;;;;;;;2.78;1.20;;;19.10;81.40;;;;;;5022317;28;20587;-74
2022/10/15 11:07:04;;;;;;;3.05;1.25;;;18.70;78.80;;;;;;5025115;28;20096;-74
2022/10/15 11:09:45;;;;;;;1.48;0.90;;;18.10;75.50;;;;;;5025292;28;20033;-74
2022/10/15 11:13:03;;;;;;;3.70;1.00;;;17.90;75.50;;;;;;5014802;28;20220;-74
2022/10/15 11:15:39;;;;;;;1.52;0.90;;;17.60;75.80;;;;;;5004309;28;20046;-75
2022/10/15 11:18:30;;;;;;;2.25;0.85;;;17.60;74.50;;;;;;5018645;28;20029;-76
2022/10/15 11:21:07;;;;;;;3.15;1.02;;;17.70;74.80;;;;;;5026860;28;20417;-74
2022/10/15 11:23:42;;;;;;;3.97;1.10;;;17.70;75.30;;;;;;5021124;28;20045;-74
2022/10/15 11:26:31;;;;;;;5.50;1.27;;;17.90;75.60;;;;;;5026174;28;20061;-73
2022/10/15 11:29:18;;;;;;;4.22;1.40;;;18.00;75.30;;;;;;5017963;28;20032;-74
2022/10/15 11:31:49;;;;;;;4.70;1.50;;;18.30;75.90;;;;;;5008492;28;20029;-74
2022/10/15 11:34:22;;;;;;;3.80;1.30;;;18.70;75.00;;;;;;5026573;28;20045;-74
2022/10/15 11:36:53;;;;;;;2.55;0.88;;;18.40;73.90;;;;;;5009295;28;20072;-74
2022/10/15 11:39:48;;;;;;;2.80;1.17;;;18.30;74.30;;;;;;5023322;28;20036;-73
2022/10/15 11:42:24;;;;;;;4.65;1.20;;;18.40;74.50;;;;;;5016655;28;20076;-73
2022/10/15 11:45:14;;;;;;;4.68;1.38;;;18.30;75.30;;;;;;5017550;28;20084;-74
2022/10/15 11:47:59;;;;;;;3.70;1.45;;;18.50;75.10;;;;;;5020392;28;20021;-74
2022/10/15 11:50:45;;;;;;;5.15;1.88;;;18.40;75.20;;;;;;5021711;28;20041;-74
2022/10/15 11:53:26;;;;;;;6.47;1.58;;;18.60;76.20;;;;;;5021177;28;20037;-74
2022/10/15 11:56:02;;;;;;;7.20;1.83;;;18.60;75.30;;;;;;5025658;28;20056;-74
2022/10/15 11:58:34;;;;;;;4.85;1.80;;;18.80;75.40;;;;;;5006964;28;20376;-75
2022/10/15 12:01:29;;;;;;;3.72;1.40;;;19.00;75.70;;;;;;5027003;28;20021;-74
2022/10/15 12:04:11;;;;;;;6.35;1.65;;;19.10;74.30;;;;;;5021563;28;20469;-75
2022/10/15 12:06:42;;;;;;;4.57;1.45;;;19.10;72.80;;;;;;5026211;28;20025;-74
2022/10/15 12:09:15;;;;;;;5.38;1.40;;;18.90;72.10;;;;;;5024917;28;20424;-73
2022/10/15 12:11:50;;;;;;;4.85;1.40;;;19.00;71.00;;;;;;5025719;28;20029;-73
2022/10/15 12:14:40;;;;;;;6.72;1.77;;;18.80;71.20;;;;;;5023407;28;20076;-73
2022/10/15 12:17:22;;;;;;;6.47;1.65;;;18.80;71.60;;;;;;5026177;28;20132;-73
2022/10/15 12:19:53;;;;;;;5.97;1.88;;;18.80;72.10;;;;;;5025630;28;20042;-73
2022/10/15 12:22:53;;;;;;;5.75;1.63;;;18.60;71.90;;;;;;5025022;28;20496;-74
2022/10/15 12:25:45;;;;;;;7.90;2.00;;;18.60;72.60;;;;;;5022181;28;20346;-73
2022/10/15 12:28:18;;;;;;;4.50;1.83;;;18.60;73.00;;;;;;5018502;28;20033;-74
2022/10/15 12:31:03;;;;;;;5.03;1.55;;;18.70;72.80;;;;;;5008312;28;20061;-74
2022/10/15 12:33:32;;;;;;;6.57;1.92;;;18.70;73.30;;;;;;5025003;28;20025;-73
2022/10/15 12:36:19;;;;;;;8.13;1.80;;;18.90;73.10;;;;;;5025744;28;20091;-73
2022/10/15 12:39:02;;;;;;;5.32;1.60;;;19.10;72.60;;;;;;5020908;28;20674;-74
2022/10/15 12:41:39;;;;;;;8.38;1.67;;;19.20;72.40;;;;;;5012728;28;20080;-74
2022/10/15 12:44:17;;;;;;;6.70;1.67;;;19.30;71.10;;;;;;5025161;28;20041;-73
2022/10/15 12:46:43;;;;;;;7.05;1.70;;;19.40;71.20;;;;;;5024049;28;20660;-73
2022/10/15 12:49:30;;;;;;;5.38;1.58;;;19.30;70.70;;;;;;5019444;28;20040;-73
2022/10/15 12:51:58;;;;;;;8.30;1.90;;;19.20;71.30;;;;;;5021326;28;20476;-74